Time;durP1;ratioP1;P1;durP2;ratioP2;P2;SDS_P1;SDS_P2;PMS_P1;PMS_P2;Temp;Humidity;BMP_temperature;BMP_pressure;BME280_temperature;BME280_humidity;BME280_pressure;Samples;Min_cycle;Max_cycle;Signal;HPM_P1;HPM_P2
2021/05/08 00:00:55;;;;;;;0.32;0.28;;;;;;;;;;5030557;28;20046;-89
2021/05/08 00:03:21;;;;;;;1.10;0.50;;;;;;;;;;4982577;28;20044;-92
2021/05/08 00:05:48;;;;;;;0.52;0.32;;;;;;;;;;4998838;28;20034;-89
2021/05/08 00:08:14;;;;;;;1.42;0.50;;;;;;;;;;4994740;28;20026;-89
2021/05/08 00:10:40;;;;;;;0.50;0.20;;;;;;;;;;4998020;28;20030;-90
2021/05/08 00:13:06;;;;;;;1.13;0.40;;;;;;;;;;4995612;28;20073;-89
2021/05/08 00:15:32;;;;;;;0.38;0.30;;;;;;;;;;5026023;28;20040;-89
2021/05/08 00:17:58;;;;;;;0.35;0.32;;;;;;;;;;5024196;28;20067;-89
2021/05/08 00:20:25;;;;;;;2.28;0.30;;;;;;;;;;5009279;28;20125;-89
2021/05/08 00:22:51;;;;;;;0.75;0.40;;;;;;;;;;5009309;28;20022;-89
2021/05/08 00:25:17;;;;;;;0.32;0.22;;;;;;;;;;4990204;28;20047;-89
2021/05/08 00:27:43;;;;;;;0.50;0.30;;;;;;;;;;4986065;28;20551;-89
2021/05/08 00:30:09;;;;;;;1.55;0.70;;;;;;;;;;4982456;28;20030;-89
2021/05/08 00:32:36;;;;;;;2.22;0.43;;;;;;;;;;4997845;28;20019;-89
2021/05/08 00:35:02;;;;;;;1.58;0.30;;;;;;;;;;4979533;28;20031;-90
2021/05/08 00:37:28;;;;;;;1.38;0.50;;;;;;;;;;4999214;28;20034;-90
2021/05/08 00:39:54;;;;;;;0.38;0.32;;;;;;;;;;4994449;28;20022;-89
2021/05/08 00:42:20;;;;;;;0.20;0.20;;;;;;;;;;4994444;28;20053;-89
2021/05/08 00:44:46;;;;;;;1.10;0.35;;;;;;;;;;4989551;28;20049;-90
2021/05/08 00:47:13;;;;;;;0.40;0.30;;;;;;;;;;4998347;28;20479;-89
2021/05/08 00:49:39;;;;;;;0.40;0.30;;;;;;;;;;5003407;28;20042;-90
2021/05/08 00:52:06;;;;;;;1.65;0.40;;;;;;;;;;5011706;28;20026;-90
2021/05/08 00:54:32;;;;;;;0.38;0.30;;;;;;;;;;5015701;28;20075;-90
2021/05/08 00:56:59;;;;;;;0.80;0.40;;;;;;;;;;5020853;28;20030;-89
2021/05/08 00:59:25;;;;;;;0.20;0.20;;;;;;;;;;5008875;28;20053;-90
2021/05/08 01:01:51;;;;;;;0.77;0.30;;;;;;;;;;5015719;28;20091;-90
2021/05/08 01:04:17;;;;;;;0.80;0.40;;;;;;;;;;4993704;28;20056;-90
2021/05/08 01:06:43;;;;;;;0.40;0.30;;;;;;;;;;5013734;28;20053;-90
2021/05/08 01:09:10;;;;;;;0.50;0.40;;;;;;;;;;4999072;28;20030;-90
2021/05/08 01:11:36;;;;;;;1.02;0.30;;;;;;;;;;4989548;28;20034;-90
2021/05/08 01:14:04;;;;;;;2.13;0.47;;;;;;;;;;5015602;28;20014;-90
2021/05/08 01:16:30;;;;;;;0.65;0.40;;;;;;;;;;5008937;28;20094;-90
2021/05/08 01:18:56;;;;;;;0.45;0.30;;;;;;;;;;4996096;28;20035;-90
2021/05/08 01:21:22;;;;;;;0.52;0.30;;;;;;;;;;5019778;28;20502;-90
2021/05/08 01:23:50;;;;;;;0.40;0.28;;;;;;;;;;5013929;28;20023;-90
2021/05/08 01:26:16;;;;;;;1.95;0.50;;;;;;;;;;5019867;28;20048;-89
2021/05/08 01:28:42;;;;;;;1.17;0.30;;;;;;;;;;5009401;28;20019;-90
2021/05/08 01:31:09;;;;;;;0.88;0.40;;;;;;;;;;5010072;28;20094;-90
2021/05/08 01:33:35;;;;;;;1.42;0.82;;;;;;;;;;4999465;28;20027;-89
2021/05/08 01:36:01;;;;;;;0.32;0.32;;;;;;;;;;5004100;28;20089;-89
2021/05/08 01:38:27;;;;;;;1.23;0.45;;;;;;;;;;4997396;28;20077;-89
2021/05/08 01:41:06;;;;;;;1.08;0.43;;;;;;;;;;4993737;28;20034;-89
2021/05/08 01:43:32;;;;;;;1.02;0.40;;;;;;;;;;4994511;28;20537;-90
2021/05/08 01:45:58;;;;;;;0.60;0.40;;;;;;;;;;4982773;28;20511;-89
2021/05/08 01:48:25;;;;;;;0.65;0.38;;;;;;;;;;5010413;28;20018;-90
2021/05/08 01:50:51;;;;;;;0.63;0.38;;;;;;;;;;5000938;28;20053;-91
2021/05/08 01:53:17;;;;;;;1.30;0.28;;;;;;;;;;4999923;28;20022;-90
2021/05/08 01:55:43;;;;;;;0.52;0.40;;;;;;;;;;4989889;28;20034;-90
2021/05/08 01:58:09;;;;;;;1.38;0.45;;;;;;;;;;5009066;28;20030;-90
2021/05/08 02:00:41;;;;;;;2.17;0.45;;;;;;;;;;5013202;28;20033;-89
2021/05/08 02:03:07;;;;;;;1.05;0.50;;;;;;;;;;4980267;28;20073;-90
2021/05/08 02:05:34;;;;;;;1.25;0.50;;;;;;;;;;4996970;28;20037;-89
2021/05/08 02:08:03;;;;;;;1.17;0.60;;;;;;;;;;5016140;28;20026;-89
2021/05/08 02:10:29;;;;;;;0.38;0.32;;;;;;;;;;5012379;28;20032;-90
2021/05/08 02:12:55;;;;;;;2.45;0.65;;;;;;;;;;4995319;28;20530;-89
2021/05/08 02:15:21;;;;;;;0.57;0.50;;;;;;;;;;5022720;28;20053;-90
2021/05/08 02:17:47;;;;;;;0.43;0.40;;;;;;;;;;4981956;28;20081;-89
2021/05/08 02:20:15;;;;;;;0.88;0.45;;;;;;;;;;5000871;28;20030;-90
2021/05/08 02:22:41;;;;;;;1.63;0.40;;;;;;;;;;5009108;28;20038;-89
2021/05/08 02:25:08;;;;;;;0.55;0.40;;;;;;;;;;5003671;28;20113;-90
2021/05/08 02:27:34;;;;;;;0.60;0.40;;;;;;;;;;4997120;28;20045;-90
2021/05/08 02:30:00;;;;;;;2.83;0.55;;;;;;;;;;5002251;28;20057;-90
2021/05/08 02:32:26;;;;;;;1.33;0.60;;;;;;;;;;5007967;28;20046;-89
2021/05/08 02:34:52;;;;;;;1.40;0.45;;;;;;;;;;5007592;28;20034;-90
2021/05/08 02:37:18;;;;;;;0.80;0.50;;;;;;;;;;4991948;28;20023;-90
2021/05/08 02:39:44;;;;;;;0.75;0.50;;;;;;;;;;4998282;28;20030;-90
2021/05/08 02:42:10;;;;;;;0.85;0.50;;;;;;;;;;4995541;28;20026;-90
2021/05/08 02:44:36;;;;;;;1.38;0.40;;;;;;;;;;4991185;28;20053;-90
2021/05/08 02:47:02;;;;;;;1.33;0.50;;;;;;;;;;4989129;28;20479;-90
2021/05/08 02:49:28;;;;;;;1.60;0.60;;;;;;;;;;4975552;28;20118;-89
2021/05/08 02:51:54;;;;;;;0.38;0.30;;;;;;;;;;4996313;28;20472;-90
2021/05/08 02:54:20;;;;;;;1.65;0.40;;;;;;;;;;4980296;28;20034;-90
2021/05/08 02:56:46;;;;;;;0.90;0.50;;;;;;;;;;4999753;28;20034;-89
2021/05/08 02:59:12;;;;;;;0.65;0.30;;;;;;;;;;5003684;28;20106;-89
2021/05/08 03:01:38;;;;;;;1.17;0.50;;;;;;;;;;4978639;28;20030;-89
2021/05/08 03:04:04;;;;;;;0.50;0.35;;;;;;;;;;4986060;28;20109;-89
2021/05/08 03:06:30;;;;;;;1.17;0.50;;;;;;;;;;4989855;28;20040;-89
2021/05/08 03:08:56;;;;;;;0.45;0.30;;;;;;;;;;4997039;28;20050;-89
2021/05/08 03:11:22;;;;;;;2.35;0.50;;;;;;;;;;4981112;28;20034;-90
2021/05/08 03:13:48;;;;;;;0.30;0.30;;;;;;;;;;5000548;28;20036;-89
2021/05/08 03:16:14;;;;;;;0.60;0.50;;;;;;;;;;4979451;28;20026;-90
2021/05/08 03:18:40;;;;;;;1.55;0.40;;;;;;;;;;5016891;28;20471;-89
2021/05/08 03:21:06;;;;;;;0.73;0.40;;;;;;;;;;4990605;28;20029;-89
2021/05/08 03:23:32;;;;;;;0.35;0.30;;;;;;;;;;5001168;28;20073;-89
2021/05/08 03:25:58;;;;;;;0.50;0.40;;;;;;;;;;5002015;28;20034;-89
2021/05/08 03:28:24;;;;;;;0.90;0.60;;;;;;;;;;5014138;28;20483;-90
2021/05/08 03:30:50;;;;;;;1.08;0.70;;;;;;;;;;5012222;28;20033;-89
2021/05/08 03:33:16;;;;;;;1.55;0.70;;;;;;;;;;4996456;28;20053;-89
2021/05/08 03:35:42;;;;;;;1.40;0.52;;;;;;;;;;5007665;28;20030;-89
2021/05/08 03:38:08;;;;;;;1.13;0.70;;;;;;;;;;4995048;28;20101;-89
2021/05/08 03:40:34;;;;;;;0.60;0.52;;;;;;;;;;5013968;28;20062;-89
2021/05/08 03:43:00;;;;;;;1.08;0.50;;;;;;;;;;5031446;28;20022;-90
2021/05/08 03:45:27;;;;;;;0.85;0.40;;;;;;;;;;4996203;28;20129;-90
2021/05/08 03:47:53;;;;;;;0.82;0.50;;;;;;;;;;5006140;28;20022;-90
2021/05/08 03:50:19;;;;;;;0.88;0.32;;;;;;;;;;5023944;28;20110;-89
2021/05/08 03:52:45;;;;;;;1.33;0.35;;;;;;;;;;5003779;28;20418;-90
2021/05/08 03:55:11;;;;;;;0.77;0.50;;;;;;;;;;4990866;28;20069;-90
2021/05/08 03:57:37;;;;;;;0.52;0.43;;;;;;;;;;5013551;28;20026;-90
2021/05/08 04:00:04;;;;;;;1.15;0.50;;;;;;;;;;5001953;28;20049;-89
2021/05/08 04:02:30;;;;;;;1.17;0.40;;;;;;;;;;5018404;28;20021;-90
2021/05/08 04:04:56;;;;;;;0.75;0.43;;;;;;;;;;5000541;28;20038;-89
2021/05/08 04:07:22;;;;;;;0.95;0.50;;;;;;;;;;5013971;28;20029;-90
2021/05/08 04:09:48;;;;;;;1.17;0.50;;;;;;;;;;4994923;28;20050;-89
2021/05/08 04:12:14;;;;;;;0.45;0.45;;;;;;;;;;5023822;28;20030;-90
2021/05/08 04:14:40;;;;;;;0.95;0.50;;;;;;;;;;5029222;28;20030;-90
2021/05/08 04:17:06;;;;;;;1.63;0.52;;;;;;;;;;5002316;28;20026;-89
2021/05/08 04:19:32;;;;;;;1.27;0.50;;;;;;;;;;4990461;28;20029;-90
2021/05/08 04:21:58;;;;;;;2.00;0.50;;;;;;;;;;5006929;28;20105;-89
2021/05/08 04:24:24;;;;;;;0.55;0.50;;;;;;;;;;5005891;28;20030;-89
2021/05/08 04:26:50;;;;;;;0.68;0.25;;;;;;;;;;5007993;28;20032;-90
2021/05/08 04:29:16;;;;;;;0.77;0.38;;;;;;;;;;5002157;28;20026;-90
2021/05/08 04:31:42;;;;;;;2.40;0.40;;;;;;;;;;5011384;28;20053;-89
2021/05/08 04:34:08;;;;;;;1.75;0.50;;;;;;;;;;4994495;28;20080;-90
2021/05/08 04:36:34;;;;;;;0.38;0.35;;;;;;;;;;4998776;28;20038;-90
2021/05/08 04:39:00;;;;;;;1.05;0.50;;;;;;;;;;4991690;28;20050;-89
2021/05/08 04:41:26;;;;;;;1.50;0.52;;;;;;;;;;4995953;28;20095;-89
2021/05/08 04:43:52;;;;;;;1.38;0.50;;;;;;;;;;5017102;28;20093;-89
2021/05/08 04:46:18;;;;;;;1.30;0.50;;;;;;;;;;4996111;28;20042;-89
2021/05/08 04:48:44;;;;;;;0.88;0.35;;;;;;;;;;5015426;28;20029;-90
2021/05/08 04:51:10;;;;;;;1.40;0.40;;;;;;;;;;4996295;28;20402;-90
2021/05/08 04:53:36;;;;;;;1.40;0.50;;;;;;;;;;4981468;28;20113;-90
2021/05/08 04:56:02;;;;;;;1.10;0.40;;;;;;;;;;4981678;28;20034;-90
2021/05/08 04:58:28;;;;;;;1.05;0.47;;;;;;;;;;4979245;28;20022;-90
2021/05/08 05:00:54;;;;;;;0.82;0.60;;;;;;;;;;4979937;28;20029;-89
2021/05/08 05:03:20;;;;;;;0.85;0.47;;;;;;;;;;4988477;28;20110;-92
2021/05/08 05:05:46;;;;;;;1.38;0.60;;;;;;;;;;4996203;28;20041;-90
2021/05/08 05:08:18;;;;;;;1.20;0.50;;;;;;;;;;4999033;28;20448;-92
2021/05/08 05:10:44;;;;;;;3.13;1.58;;;;;;;;;;4991880;28;20036;-92
2021/05/08 05:13:10;;;;;;;2.50;1.60;;;;;;;;;;5011660;28;20026;-89
2021/05/08 05:15:36;;;;;;;2.70;1.63;;;;;;;;;;4999241;28;20034;-91
2021/05/08 05:18:02;;;;;;;3.67;1.70;;;;;;;;;;4997762;28;20030;-91
2021/05/08 05:20:28;;;;;;;2.33;1.60;;;;;;;;;;5005828;28;20101;-90
2021/05/08 05:22:53;;;;;;;2.03;1.33;;;;;;;;;;4996839;28;20022;-90
2021/05/08 05:25:19;;;;;;;2.33;1.38;;;;;;;;;;4977385;28;20392;-91
2021/05/08 05:27:46;;;;;;;1.33;0.65;;;;;;;;;;4985719;28;20023;-91
2021/05/08 05:30:12;;;;;;;1.20;0.57;;;;;;;;;;5010253;28;20037;-90
2021/05/08 05:32:38;;;;;;;2.25;0.70;;;;;;;;;;5000191;28;20027;-90
2021/05/08 05:35:05;;;;;;;0.88;0.70;;;;;;;;;;4980996;28;20084;-91
2021/05/08 05:37:31;;;;;;;1.55;0.85;;;;;;;;;;4996858;28;20014;-91
2021/05/08 05:39:57;;;;;;;1.50;0.80;;;;;;;;;;4982001;28;20039;-90
2021/05/08 05:42:24;;;;;;;1.38;0.70;;;;;;;;;;5003873;28;20081;-90
2021/05/08 05:44:50;;;;;;;1.25;0.82;;;;;;;;;;4997133;28;20133;-90
2021/05/08 05:47:22;;;;;;;3.58;1.00;;;;;;;;;;5004785;28;20513;-91
2021/05/08 05:49:49;;;;;;;3.92;1.00;;;;;;;;;;4994279;28;20554;-90
2021/05/08 05:52:15;;;;;;;1.65;0.70;;;;;;;;;;4989038;28;20006;-90
2021/05/08 05:54:51;;;;;;;1.13;0.70;;;;;;;;;;4995932;28;20026;-91
2021/05/08 05:57:17;;;;;;;1.35;0.70;;;;;;;;;;5004059;28;20038;-90
2021/05/08 05:59:44;;;;;;;1.10;0.80;;;;;;;;;;4990851;28;20028;-91
2021/05/08 06:02:10;;;;;;;2.13;1.02;;;;;;;;;;5004296;28;20022;-91
2021/05/08 06:04:36;;;;;;;2.10;0.90;;;;;;;;;;4998002;28;20031;-92
2021/05/08 06:07:03;;;;;;;3.03;0.80;;;;;;;;;;5006116;28;20038;-91
2021/05/08 06:09:29;;;;;;;2.95;0.82;;;;;;;;;;4988254;28;20027;-91
2021/05/08 06:11:56;;;;;;;2.70;0.77;;;;;;;;;;5024618;28;20048;-91
2021/05/08 06:14:25;;;;;;;2.13;0.70;;;;;;;;;;4977116;28;20120;-90
2021/05/08 06:16:54;;;;;;;0.82;0.50;;;;;;;;;;4999201;28;20120;-91
2021/05/08 06:19:20;;;;;;;1.08;0.60;;;;;;;;;;4975441;28;20122;-90
2021/05/08 06:21:46;;;;;;;2.42;0.85;;;;;;;;;;5024773;28;20018;-90
2021/05/08 06:24:12;;;;;;;1.20;0.70;;;;;;;;;;5013356;28;20467;-91
2021/05/08 06:26:38;;;;;;;1.38;0.80;;;;;;;;;;4990649;28;20053;-91
2021/05/08 06:29:04;;;;;;;0.93;0.60;;;;;;;;;;4998680;28;20052;-89
2021/05/08 06:31:31;;;;;;;2.15;0.70;;;;;;;;;;5001053;28;20104;-90
2021/05/08 06:33:57;;;;;;;0.82;0.57;;;;;;;;;;4989494;28;20026;-89
2021/05/08 06:36:23;;;;;;;1.48;0.60;;;;;;;;;;5007729;28;20034;-90
2021/05/08 06:38:49;;;;;;;1.13;0.70;;;;;;;;;;5017488;28;20037;-91
2021/05/08 06:41:16;;;;;;;2.17;0.80;;;;;;;;;;5001313;28;20029;-90
2021/05/08 06:43:42;;;;;;;1.55;0.80;;;;;;;;;;4993415;28;20169;-90
2021/05/08 06:46:08;;;;;;;1.23;0.52;;;;;;;;;;4993554;28;20033;-89
2021/05/08 06:48:37;;;;;;;1.52;0.90;;;;;;;;;;5006748;28;20030;-91
2021/05/08 06:51:03;;;;;;;1.45;0.85;;;;;;;;;;5021340;28;20057;-90
2021/05/08 06:53:29;;;;;;;3.75;0.73;;;;;;;;;;4984525;28;20471;-90
2021/05/08 06:55:55;;;;;;;1.10;0.77;;;;;;;;;;5008672;28;20057;-90
2021/05/08 06:58:21;;;;;;;2.92;0.85;;;;;;;;;;4988975;28;20057;-90
2021/05/08 07:00:47;;;;;;;1.75;0.70;;;;;;;;;;5010077;28;20109;-92
2021/05/08 07:03:14;;;;;;;0.95;0.57;;;;;;;;;;5010525;28;20026;-92
2021/05/08 07:05:40;;;;;;;1.92;0.88;;;;;;;;;;4993651;28;20038;-92
2021/05/08 07:08:08;;;;;;;2.42;0.98;;;;;;;;;;5003672;28;20049;-92
2021/05/08 07:10:34;;;;;;;2.03;0.75;;;;;;;;;;5005894;28;20113;-91
2021/05/08 07:13:00;;;;;;;1.85;0.93;;;;;;;;;;4994587;28;20022;-92
2021/05/08 07:15:26;;;;;;;3.03;0.90;;;;;;;;;;5013557;28;20386;-92
2021/05/08 07:17:59;;;;;;;1.08;0.50;;;;;;;;;;4986178;28;20117;-92
2021/05/08 07:20:25;;;;;;;1.52;0.60;;;;;;;;;;4979762;28;20032;-91
2021/05/08 07:22:51;;;;;;;1.35;0.80;;;;;;;;;;5013526;28;20025;-92
2021/05/08 07:25:17;;;;;;;1.83;0.75;;;;;;;;;;4985827;28;20056;-90
2021/05/08 07:27:43;;;;;;;0.73;0.40;;;;;;;;;;5028295;28;20048;-92
2021/05/08 07:30:09;;;;;;;0.73;0.50;;;;;;;;;;5016191;28;20034;-90
2021/05/08 07:32:35;;;;;;;1.73;0.60;;;;;;;;;;5004286;28;20058;-91
2021/05/08 07:35:01;;;;;;;1.60;0.60;;;;;;;;;;4987242;28;20030;-90
2021/05/08 07:37:27;;;;;;;1.42;0.68;;;;;;;;;;4995557;28;20566;-90
2021/05/08 07:39:53;;;;;;;2.15;0.50;;;;;;;;;;5015747;28;20085;-90
2021/05/08 07:42:19;;;;;;;0.93;0.63;;;;;;;;;;4995179;28;20364;-89
2021/05/08 07:44:45;;;;;;;0.85;0.55;;;;;;;;;;5005706;28;20044;-91
2021/05/08 07:47:13;;;;;;;1.38;0.80;;;;;;;;;;4992598;28;20030;-91
2021/05/08 07:49:39;;;;;;;1.27;0.65;;;;;;;;;;5013094;28;20061;-90
2021/05/08 07:52:06;;;;;;;0.77;0.40;;;;;;;;;;4980363;28;20031;-90
2021/05/08 07:54:32;;;;;;;1.02;0.55;;;;;;;;;;5010705;28;20050;-91
2021/05/08 07:56:58;;;;;;;2.47;1.08;;;;;;;;;;4996347;28;20094;-90
2021/05/08 07:59:24;;;;;;;0.63;0.40;;;;;;;;;;4990126;28;20041;-90
2021/05/08 08:01:50;;;;;;;0.63;0.40;;;;;;;;;;4998673;28;20022;-91
2021/05/08 08:04:16;;;;;;;1.52;0.60;;;;;;;;;;5015313;28;20023;-90
2021/05/08 08:06:42;;;;;;;0.95;0.50;;;;;;;;;;5026151;28;20093;-90
2021/05/08 08:09:08;;;;;;;0.75;0.40;;;;;;;;;;5020205;28;20387;-90
2021/05/08 08:11:34;;;;;;;0.82;0.52;;;;;;;;;;4999660;28;20031;-90
2021/05/08 08:14:00;;;;;;;1.08;0.40;;;;;;;;;;5000251;28;20037;-90
2021/05/08 08:16:26;;;;;;;0.55;0.40;;;;;;;;;;4998602;28;20030;-89
2021/05/08 08:18:52;;;;;;;1.20;0.50;;;;;;;;;;5001432;28;20041;-90
2021/05/08 08:21:18;;;;;;;1.83;0.40;;;;;;;;;;5002038;28;20026;-89
2021/05/08 08:23:44;;;;;;;0.60;0.50;;;;;;;;;;5006884;28;20046;-90
2021/05/08 08:26:10;;;;;;;0.40;0.40;;;;;;;;;;5015242;28;20038;-90
2021/05/08 08:28:36;;;;;;;0.35;0.30;;;;;;;;;;4993688;28;20018;-90
2021/05/08 08:31:02;;;;;;;0.60;0.30;;;;;;;;;;5006078;28;20026;-90
2021/05/08 08:33:28;;;;;;;0.60;0.30;;;;;;;;;;4998519;28;20018;-90
2021/05/08 08:35:54;;;;;;;0.32;0.30;;;;;;;;;;5001420;28;20029;-90
2021/05/08 08:38:20;;;;;;;2.15;0.38;;;;;;;;;;4997926;28;20014;-90
2021/05/08 08:40:47;;;;;;;0.55;0.40;;;;;;;;;;5004457;28;20076;-89
2021/05/08 08:43:13;;;;;;;1.35;0.40;;;;;;;;;;4991287;28;20037;-90
2021/05/08 08:45:40;;;;;;;0.50;0.38;;;;;;;;;;5010166;28;20080;-90
2021/05/08 08:48:06;;;;;;;0.30;0.30;;;;;;;;;;4994711;28;20467;-91
2021/05/08 08:50:36;;;;;;;2.55;0.50;;;;;;;;;;4981679;28;20086;-90
2021/05/08 08:53:02;;;;;;;2.63;0.60;;;;;;;;;;4993556;28;20113;-90
2021/05/08 08:55:29;;;;;;;2.53;0.40;;;;;;;;;;4993269;28;20027;-89
2021/05/08 08:57:56;;;;;;;0.98;0.50;;;;;;;;;;5003534;28;20026;-90
2021/05/08 09:00:22;;;;;;;1.77;0.43;;;;;;;;;;5004951;28;20392;-90
2021/05/08 09:02:49;;;;;;;0.43;0.40;;;;;;;;;;5003020;28;20026;-90
2021/05/08 09:05:19;;;;;;;0.63;0.40;;;;;;;;;;4991478;28;20085;-90
2021/05/08 09:07:46;;;;;;;1.48;0.40;;;;;;;;;;4995022;28;20019;-89
2021/05/08 09:10:21;;;;;;;0.70;0.60;;;;;;;;;;5013462;28;20030;-88
2021/05/08 09:12:48;;;;;;;0.40;0.40;;;;;;;;;;5015257;28;20157;-89
2021/05/08 09:15:14;;;;;;;2.20;0.50;;;;;;;;;;5006368;28;20078;-90
2021/05/08 09:17:44;;;;;;;0.50;0.40;;;;;;;;;;4989084;28;20029;-89
2021/05/08 09:20:11;;;;;;;1.33;0.60;;;;;;;;;;5026686;28;20026;-90
2021/05/08 09:22:41;;;;;;;1.25;0.47;;;;;;;;;;4982288;28;20108;-89
2021/05/08 09:25:17;;;;;;;1.15;0.50;;;;;;;;;;4996800;28;20039;-90
2021/05/08 09:27:46;;;;;;;0.95;0.50;;;;;;;;;;4986119;28;20023;-89
2021/05/08 09:30:20;;;;;;;0.40;0.40;;;;;;;;;;5001143;28;20120;-89
2021/05/08 09:32:46;;;;;;;0.90;0.50;;;;;;;;;;4985068;28;20049;-90
2021/05/08 09:35:16;;;;;;;1.70;0.60;;;;;;;;;;5010723;28;20022;-90
2021/05/08 09:37:43;;;;;;;0.70;0.52;;;;;;;;;;5021650;28;20033;-91
2021/05/08 09:40:15;;;;;;;1.67;0.70;;;;;;;;;;4981862;28;20033;-90
2021/05/08 09:42:59;;;;;;;1.00;0.60;;;;;;;;;;5027087;28;20044;-91
2021/05/08 09:45:26;;;;;;;1.08;0.50;;;;;;;;;;4986921;28;20035;-90
2021/05/08 09:47:52;;;;;;;0.50;0.50;;;;;;;;;;5020092;28;20044;-90
2021/05/08 09:50:22;;;;;;;2.15;0.50;;;;;;;;;;4999024;28;20049;-90
2021/05/08 09:52:49;;;;;;;0.75;0.47;;;;;;;;;;4993593;28;20434;-90
2021/05/08 09:55:16;;;;;;;0.70;0.50;;;;;;;;;;4980450;28;20033;-89
2021/05/08 09:57:55;;;;;;;0.50;0.50;;;;;;;;;;5016197;28;20044;-89
2021/05/08 10:00:51;;;;;;;0.98;0.60;;;;;;;;;;4988120;28;20501;-90
2021/05/08 10:03:17;;;;;;;1.35;0.65;;;;;;;;;;4985111;28;20030;-89
2021/05/08 10:05:58;;;;;;;0.60;0.50;;;;;;;;;;4987023;28;20030;-89
2021/05/08 10:08:24;;;;;;;1.17;0.50;;;;;;;;;;5003731;28;20049;-89
2021/05/08 10:10:50;;;;;;;1.27;0.68;;;;;;;;;;4986113;28;20018;-89
2021/05/08 10:13:16;;;;;;;1.45;0.57;;;;;;;;;;5009008;28;20082;-89
2021/05/08 10:15:42;;;;;;;1.95;0.50;;;;;;;;;;5001653;28;20026;-89
2021/05/08 10:18:11;;;;;;;1.25;0.60;;;;;;;;;;5009463;28;20030;-89
2021/05/08 10:20:38;;;;;;;1.63;0.50;;;;;;;;;;5011022;28;20018;-89
2021/05/08 10:23:11;;;;;;;0.40;0.40;;;;;;;;;;5025839;28;20026;-89
2021/05/08 10:25:41;;;;;;;1.00;0.40;;;;;;;;;;4989441;28;20109;-89
2021/05/08 10:28:07;;;;;;;1.40;0.55;;;;;;;;;;4995864;28;20053;-89
2021/05/08 10:30:35;;;;;;;1.02;0.50;;;;;;;;;;5004031;28;20026;-89
2021/05/08 10:33:06;;;;;;;0.65;0.50;;;;;;;;;;4987474;28;20121;-88
2021/05/08 10:35:45;;;;;;;0.35;0.32;;;;;;;;;;4999589;28;20025;-89
2021/05/08 10:38:16;;;;;;;0.68;0.40;;;;;;;;;;4997584;28;20048;-89
2021/05/08 10:40:53;;;;;;;1.08;0.50;;;;;;;;;;4996819;28;20046;-89
2021/05/08 10:43:38;;;;;;;0.68;0.40;;;;;;;;;;4963405;28;20049;-91
2021/05/08 10:46:05;;;;;;;0.73;0.50;;;;;;;;;;5004892;28;20134;-89
2021/05/08 10:48:31;;;;;;;1.55;0.60;;;;;;;;;;5000693;28;20114;-89
2021/05/08 10:51:00;;;;;;;2.17;0.50;;;;;;;;;;5017595;28;20048;-89
2021/05/08 10:53:39;;;;;;;0.65;0.40;;;;;;;;;;5002363;28;20122;-88
2021/05/08 10:56:05;;;;;;;0.73;0.50;;;;;;;;;;4984588;28;20018;-92
2021/05/08 10:58:38;;;;;;;0.32;0.32;;;;;;;;;;4984994;28;20027;-89
2021/05/08 11:01:04;;;;;;;1.27;0.43;;;;;;;;;;4986584;28;20023;-89
2021/05/08 11:03:31;;;;;;;0.73;0.32;;;;;;;;;;5004980;28;20023;-92
2021/05/08 11:06:02;;;;;;;0.70;0.40;;;;;;;;;;5009914;28;20030;-91
2021/05/08 11:08:28;;;;;;;1.65;0.40;;;;;;;;;;4994059;28;20410;-91
2021/05/08 11:10:58;;;;;;;0.88;0.55;;;;;;;;;;4997324;28;20065;-91
2021/05/08 11:13:25;;;;;;;0.85;0.50;;;;;;;;;;4979603;28;20019;-91
2021/05/08 11:16:03;;;;;;;1.05;0.38;;;;;;;;;;4997473;28;20028;-91
2021/05/08 11:18:32;;;;;;;1.02;0.50;;;;;;;;;;4988893;28;20031;-91
2021/05/08 11:20:58;;;;;;;0.30;0.30;;;;;;;;;;4990673;28;20030;-89
2021/05/08 11:23:24;;;;;;;0.40;0.40;;;;;;;;;;4975559;28;20054;-91
2021/05/08 11:25:51;;;;;;;1.30;0.30;;;;;;;;;;5003439;28;20065;-91
2021/05/08 11:28:17;;;;;;;1.33;0.43;;;;;;;;;;4999266;28;20580;-90
2021/05/08 11:30:53;;;;;;;1.10;0.50;;;;;;;;;;5016235;28;20076;-90
2021/05/08 11:33:22;;;;;;;1.02;0.50;;;;;;;;;;5005032;28;20036;-90
2021/05/08 11:36:04;;;;;;;1.67;0.60;;;;;;;;;;4995548;28;20046;-90
2021/05/08 11:38:30;;;;;;;0.93;0.40;;;;;;;;;;4987781;28;20036;-91
2021/05/08 11:40:56;;;;;;;2.53;0.45;;;;;;;;;;5005040;28;20053;-92
2021/05/08 11:43:23;;;;;;;0.95;0.45;;;;;;;;;;5001910;28;20037;-89
2021/05/08 11:45:49;;;;;;;0.85;0.55;;;;;;;;;;5008574;28;20059;-90
2021/05/08 11:48:15;;;;;;;0.63;0.50;;;;;;;;;;4989681;28;20463;-90
2021/05/08 11:50:42;;;;;;;0.60;0.50;;;;;;;;;;4998966;28;20058;-93
2021/05/08 11:53:18;;;;;;;1.35;0.40;;;;;;;;;;4984186;28;20042;-90
2021/05/08 11:55:48;;;;;;;1.95;0.73;;;;;;;;;;4982019;28;20042;-91
2021/05/08 11:58:27;;;;;;;1.42;0.50;;;;;;;;;;4994217;28;20030;-90
2021/05/08 12:00:53;;;;;;;0.82;0.40;;;;;;;;;;5008258;28;20116;-90
2021/05/08 12:03:19;;;;;;;1.00;0.50;;;;;;;;;;5005533;28;20027;-90
2021/05/08 12:05:47;;;;;;;0.65;0.50;;;;;;;;;;5010058;28;20034;-89
2021/05/08 12:08:18;;;;;;;1.00;0.47;;;;;;;;;;4991565;28;20019;-89
2021/05/08 12:10:44;;;;;;;0.98;0.43;;;;;;;;;;5010958;28;20030;-91
2021/05/08 12:13:11;;;;;;;1.15;0.50;;;;;;;;;;5014044;28;20033;-91
2021/05/08 12:15:50;;;;;;;1.13;0.60;;;;;;;;;;5014872;28;20030;-91
2021/05/08 12:18:18;;;;;;;0.55;0.38;;;;;;;;;;5032219;28;20086;-91
2021/05/08 12:20:45;;;;;;;4.43;0.52;;;;;;;;;;5014188;28;20038;-90
2021/05/08 12:23:15;;;;;;;3.08;0.55;;;;;;;;;;5031020;28;20018;-91
2021/05/08 12:25:41;;;;;;;1.38;0.57;;;;;;;;;;4994963;28;20026;-92
2021/05/08 12:28:13;;;;;;;0.98;0.60;;;;;;;;;;5012758;28;20018;-93
2021/05/08 12:30:40;;;;;;;0.60;0.40;;;;;;;;;;5025448;28;20026;-92
2021/05/08 12:33:06;;;;;;;0.75;0.60;;;;;;;;;;5027219;28;20029;-91
2021/05/08 12:35:32;;;;;;;1.73;0.70;;;;;;;;;;4995973;28;20541;-90
2021/05/08 12:37:58;;;;;;;1.13;0.52;;;;;;;;;;5007893;28;20041;-91
2021/05/08 12:40:30;;;;;;;0.80;0.50;;;;;;;;;;4994162;28;20030;-91
2021/05/08 12:42:56;;;;;;;1.02;0.60;;;;;;;;;;4992542;28;20029;-90
2021/05/08 12:45:22;;;;;;;0.57;0.50;;;;;;;;;;5007183;28;20061;-92
2021/05/08 12:47:48;;;;;;;2.50;0.40;;;;;;;;;;5005250;28;20026;-91
2021/05/08 12:50:25;;;;;;;0.55;0.43;;;;;;;;;;5006078;28;20042;-92
2021/05/08 12:52:59;;;;;;;0.73;0.60;;;;;;;;;;5009227;28;20022;-91
2021/05/08 12:55:26;;;;;;;1.42;0.50;;;;;;;;;;4994717;28;20034;-92
2021/05/08 12:57:52;;;;;;;0.60;0.45;;;;;;;;;;4989492;28;20106;-88
2021/05/08 13:00:19;;;;;;;0.52;0.40;;;;;;;;;;4995006;28;20026;-89
2021/05/08 13:02:47;;;;;;;1.08;0.50;;;;;;;;;;5005768;28;20019;-94
2021/05/08 13:05:17;;;;;;;0.57;0.40;;;;;;;;;;4985209;28;20038;-91
2021/05/08 13:07:52;;;;;;;1.38;0.52;;;;;;;;;;5001053;28;20029;-92
2021/05/08 13:10:18;;;;;;;3.80;0.60;;;;;;;;;;4976016;28;20030;-91
2021/05/08 13:12:44;;;;;;;1.10;0.40;;;;;;;;;;5005307;28;20037;-91
2021/05/08 13:15:20;;;;;;;1.92;0.60;;;;;;;;;;5025216;28;20028;-90
2021/05/08 13:17:47;;;;;;;0.75;0.52;;;;;;;;;;5001710;28;20065;-92
2021/05/08 13:20:14;;;;;;;1.48;0.40;;;;;;;;;;5001218;28;20034;-93
2021/05/08 13:22:42;;;;;;;0.50;0.50;;;;;;;;;;5010521;28;20026;-92
2021/05/08 13:25:09;;;;;;;1.63;0.55;;;;;;;;;;4998538;28;20039;-92
2021/05/08 13:27:35;;;;;;;1.30;0.50;;;;;;;;;;5015254;28;20077;-93
2021/05/08 13:30:01;;;;;;;2.15;0.47;;;;;;;;;;4987883;28;20436;-93
2021/05/08 13:32:27;;;;;;;1.75;0.60;;;;;;;;;;5005022;28;20045;-93
2021/05/08 13:34:53;;;;;;;0.60;0.50;;;;;;;;;;4999108;28;20089;-92
2021/05/08 13:37:19;;;;;;;1.02;0.47;;;;;;;;;;5004967;28;20026;-96
2021/05/08 13:39:46;;;;;;;0.75;0.60;;;;;;;;;;4993184;28;20068;-92
2021/05/08 13:42:14;;;;;;;1.35;0.45;;;;;;;;;;4978903;28;20073;-94
2021/05/08 13:44:40;;;;;;;0.40;0.35;;;;;;;;;;4992906;28;20022;-95
2021/05/08 13:47:06;;;;;;;1.77;0.60;;;;;;;;;;5000900;28;20038;-95
2021/05/08 13:49:32;;;;;;;1.25;0.50;;;;;;;;;;5005538;28;20105;-96
2021/05/08 13:51:58;;;;;;;3.13;0.80;;;;;;;;;;5014523;28;20026;-94
2021/05/08 13:54:25;;;;;;;0.90;0.60;;;;;;;;;;4995387;28;20023;-93
2021/05/08 13:56:52;;;;;;;1.05;0.43;;;;;;;;;;5000870;28;20017;-93
2021/05/08 13:59:19;;;;;;;0.70;0.60;;;;;;;;;;5003524;28;20042;-94
2021/05/08 14:01:45;;;;;;;1.48;0.55;;;;;;;;;;4999339;28;20033;-95
2021/05/08 14:04:11;;;;;;;1.10;0.47;;;;;;;;;;5003349;28;20108;-95
2021/05/08 14:06:40;;;;;;;1.35;0.50;;;;;;;;;;5014430;28;20045;-95
2021/05/08 14:09:06;;;;;;;0.90;0.60;;;;;;;;;;5014042;28;20030;-95
2021/05/08 14:11:32;;;;;;;0.60;0.35;;;;;;;;;;4995903;28;20033;-94
2021/05/08 14:13:58;;;;;;;1.00;0.47;;;;;;;;;;4991549;28;20084;-94
2021/05/08 14:16:24;;;;;;;0.68;0.50;;;;;;;;;;5005454;28;20046;-96
2021/05/08 14:18:52;;;;;;;2.80;0.60;;;;;;;;;;5010250;28;20030;-95
2021/05/08 14:21:19;;;;;;;1.33;0.60;;;;;;;;;;5007497;28;20090;-95
2021/05/08 14:23:44;;;;;;;0.60;0.60;;;;;;;;;;4982890;28;20375;-94
2021/05/08 14:26:10;;;;;;;1.00;0.60;;;;;;;;;;4993757;28;20088;-94
2021/05/08 14:28:36;;;;;;;1.58;0.47;;;;;;;;;;4999880;28;20010;-94
2021/05/08 14:31:02;;;;;;;1.33;0.60;;;;;;;;;;4981755;28;20487;-91
2021/05/08 14:33:29;;;;;;;2.38;1.65;;;;;;;;;;4995663;28;20041;-91
2021/05/08 14:35:54;;;;;;;1.17;0.73;;;;;;;;;;4997873;28;20045;-90
2021/05/08 14:38:21;;;;;;;1.10;0.75;;;;;;;;;;4981787;28;20031;-91
2021/05/08 14:40:46;;;;;;;0.93;0.57;;;;;;;;;;4998239;28;20030;-91
2021/05/08 14:43:13;;;;;;;2.85;0.82;;;;;;;;;;4990708;28;20086;-92